Time;durP1;ratioP1;P1;durP2;ratioP2;P2;SDS_P1;SDS_P2;PMS_P1;PMS_P2;Temp;Humidity;BMP_temperature;BMP_pressure;BME280_temperature;BME280_humidity;BME280_pressure;Samples;Min_cycle;Max_cycle;Signal;HPM_P1;HPM_P2
2023/03/13 00:00:48;;;;;;;26.65;5.63;;;8.20;99.90;;;;;;5158080;27;20501;-80
2023/03/13 00:03:14;;;;;;;36.00;5.18;;;8.20;99.90;;;;;;5158041;27;20047;-77
2023/03/13 00:05:39;;;;;;;23.33;4.65;;;8.20;99.90;;;;;;5157982;27;20091;-78
2023/03/13 00:08:05;;;;;;;23.23;5.07;;;8.20;99.90;;;;;;5157835;27;20042;-80
2023/03/13 00:10:30;;;;;;;27.02;4.95;;;8.20;99.90;;;;;;5157947;27;20081;-80
2023/03/13 00:12:56;;;;;;;26.20;5.60;;;8.20;99.90;;;;;;5157857;27;20481;-80
2023/03/13 00:15:21;;;;;;;34.20;6.82;;;8.20;99.90;;;;;;5157837;27;20039;-79
2023/03/13 00:17:47;;;;;;;29.42;5.50;;;8.20;99.90;;;;;;5157813;27;20039;-79
2023/03/13 00:20:16;;;;;;;20.33;4.85;;;8.20;99.90;;;;;;5157754;27;20367;-80
2023/03/13 00:22:41;;;;;;;26.75;5.68;;;8.50;99.90;;;;;;5157630;27;20039;-80
2023/03/13 00:25:07;;;;;;;22.60;5.03;;;8.20;99.90;;;;;;5157573;27;20046;-80
2023/03/13 00:27:33;;;;;;;22.98;4.82;;;8.20;99.90;;;;;;5157539;27;20042;-80
2023/03/13 00:29:59;;;;;;;29.67;5.15;;;8.20;99.90;;;;;;5139098;27;20563;-77
2023/03/13 00:32:25;;;;;;;22.90;4.78;;;8.20;99.90;;;;;;5139080;27;20382;-78
2023/03/13 00:34:50;;;;;;;24.10;4.70;;;8.70;99.90;;;;;;5157435;27;20035;-81
2023/03/13 00:37:16;;;;;;;20.05;4.70;;;8.20;99.90;;;;;;5157391;27;20047;-80
2023/03/13 00:39:41;;;;;;;21.33;4.80;;;8.20;99.90;;;;;;5157423;27;20043;-80
2023/03/13 00:42:07;;;;;;;21.52;4.70;;;8.80;99.90;;;;;;5157223;27;20066;-80
2023/03/13 00:44:33;;;;;;;37.15;5.55;;;8.20;99.90;;;;;;5156505;27;20081;-79
2023/03/13 00:46:58;;;;;;;24.17;4.65;;;8.10;99.90;;;;;;5157154;27;20505;-79
2023/03/13 00:49:24;;;;;;;29.33;5.13;;;8.10;99.90;;;;;;5138662;27;20053;-79
2023/03/13 00:51:49;;;;;;;24.10;4.68;;;8.10;99.90;;;;;;5138575;27;20051;-80
2023/03/13 00:54:15;;;;;;;27.45;5.00;;;8.10;99.90;;;;;;5157023;27;20129;-79
2023/03/13 00:56:40;;;;;;;26.77;5.22;;;8.70;99.90;;;;;;5156706;27;20035;-79
2023/03/13 00:59:06;;;;;;;30.15;5.05;;;8.00;99.90;;;;;;5156962;27;20051;-79
2023/03/13 01:01:34;;;;;;;24.77;4.82;;;8.00;99.90;;;;;;5156891;27;20047;-79
2023/03/13 01:04:02;;;;;;;28.15;7.18;;;8.00;99.90;;;;;;5138543;27;20121;-79
2023/03/13 01:06:30;;;;;;;19.98;4.60;;;8.00;99.90;;;;;;5156553;27;20078;-80
2023/03/13 01:08:56;;;;;;;30.83;5.15;;;8.00;99.90;;;;;;5138410;27;20049;-80
2023/03/13 01:11:27;;;;;;;21.63;4.80;;;8.00;99.90;;;;;;5138748;27;20081;-79
2023/03/13 01:13:58;;;;;;;23.20;5.53;;;8.00;99.90;;;;;;5156687;27;20046;-79
2023/03/13 01:16:25;;;;;;;27.60;6.40;;;8.00;99.90;;;;;;5156717;27;20122;-79
2023/03/13 01:18:53;;;;;;;25.40;4.63;;;8.00;99.90;;;;;;5156601;27;20078;-80
2023/03/13 01:21:20;;;;;;;24.20;5.10;;;8.00;99.90;;;;;;5156948;27;20047;-80
2023/03/13 01:23:47;;;;;;;32.47;5.50;;;8.00;99.90;;;;;;5156467;27;20125;-79
2023/03/13 01:26:13;;;;;;;23.60;5.18;;;8.00;99.90;;;;;;5156361;27;20038;-79
2023/03/13 01:28:39;;;;;;;25.98;6.78;;;8.00;99.90;;;;;;5156627;27;20035;-79
2023/03/13 01:31:14;;;;;;;20.83;4.47;;;8.50;99.90;;;;;;5156381;27;20175;-79
2023/03/13 01:33:40;;;;;;;27.88;6.15;;;8.00;99.90;;;;;;5156217;27;20089;-79
2023/03/13 01:36:07;;;;;;;25.52;5.63;;;8.00;99.90;;;;;;5156654;27;20085;-79
2023/03/13 01:38:33;;;;;;;;;;;8.00;99.90;;;;;;5156636;27;20382;-79
2023/03/13 01:40:58;;;;;;;21.90;5.40;;;8.30;99.90;;;;;;5156201;27;19919;-80
2023/03/13 01:43:27;;;;;;;20.45;5.20;;;8.00;99.90;;;;;;5156061;27;20046;-79
2023/03/13 01:46:08;;;;;;;22.73;5.00;;;8.00;99.90;;;;;;5156113;27;20080;-79
2023/03/13 01:48:42;;;;;;;30.13;5.15;;;8.00;99.90;;;;;;5155973;27;20058;-79
2023/03/13 01:51:13;;;;;;;24.05;6.07;;;8.00;99.90;;;;;;5155955;27;20054;-80
2023/03/13 01:53:42;;;;;;;16.40;4.13;;;8.00;99.90;;;;;;5156267;27;20407;-79
2023/03/13 01:56:14;;;;;;;24.17;4.95;;;8.10;99.90;;;;;;5155967;27;20430;-80
2023/03/13 01:58:40;;;;;;;23.85;5.18;;;8.10;99.90;;;;;;5155775;27;20043;-79
2023/03/13 02:01:06;;;;;;;27.17;5.32;;;8.10;99.90;;;;;;5155784;27;20478;-79
2023/03/13 02:03:34;;;;;;;15.23;4.32;;;8.10;99.90;;;;;;5155803;27;20049;-79
2023/03/13 02:06:00;;;;;;;25.05;5.95;;;8.10;99.90;;;;;;5156011;27;20042;-80
2023/03/13 02:08:51;;;;;;;18.17;4.85;;;9.00;99.90;;;;;;5155662;27;20112;-79
2023/03/13 02:11:26;;;;;;;40.58;6.20;;;8.20;99.90;;;;;;5155587;27;20049;-79
2023/03/13 02:13:53;;;;;;;28.17;5.07;;;8.20;99.90;;;;;;5155652;27;20038;-79
2023/03/13 02:16:20;;;;;;;19.65;5.07;;;8.20;99.90;;;;;;5155677;27;20053;-79
2023/03/13 02:18:47;;;;;;;25.83;4.93;;;8.20;99.90;;;;;;5155532;27;20047;-80
2023/03/13 02:21:40;;;;;;;23.63;5.32;;;8.20;99.90;;;;;;5155345;27;20042;-79
2023/03/13 02:24:35;;;;;;;29.65;6.57;;;8.20;99.90;;;;;;5145355;27;20059;-80
2023/03/13 02:27:02;;;;;;;28.95;6.28;;;8.20;99.90;;;;;;5155681;27;20046;-79
2023/03/13 02:29:28;;;;;;;19.92;4.55;;;8.20;99.90;;;;;;5155440;27;20129;-79
2023/03/13 02:31:54;;;;;;;21.83;5.43;;;8.40;99.90;;;;;;5137345;27;20058;-79
2023/03/13 02:34:24;;;;;;;23.85;5.10;;;8.20;99.90;;;;;;5155923;27;20047;-80
2023/03/13 02:36:51;;;;;;;21.65;4.88;;;8.20;99.90;;;;;;5155416;27;20042;-79
2023/03/13 02:39:20;;;;;;;20.77;4.80;;;8.80;99.90;;;;;;5155350;27;20046;-80
2023/03/13 02:41:47;;;;;;;20.77;5.25;;;8.20;99.90;;;;;;5120060;27;20051;-80
2023/03/13 02:44:12;;;;;;;20.65;5.10;;;8.20;99.90;;;;;;5155381;27;20125;-80
2023/03/13 02:46:46;;;;;;;16.35;4.60;;;8.30;99.90;;;;;;5155196;27;20122;-80
2023/03/13 02:49:30;;;;;;;14.38;3.90;;;8.30;99.90;;;;;;5155217;27;20051;-81
2023/03/13 02:52:17;;;;;;;18.30;4.10;;;8.30;99.90;;;;;;5155904;27;20054;-81
2023/03/13 02:54:46;;;;;;;15.52;4.57;;;8.30;99.90;;;;;;5136452;27;20110;-81
2023/03/13 02:57:12;;;;;;;18.48;4.45;;;8.30;99.90;;;;;;5119576;27;20039;-81
2023/03/13 02:59:38;;;;;;;19.42;4.10;;;8.30;99.90;;;;;;5155178;27;20050;-81
2023/03/13 03:02:04;;;;;;;18.85;5.43;;;8.40;99.90;;;;;;5155075;27;20552;-81
2023/03/13 03:04:29;;;;;;;9.77;3.55;;;8.30;99.90;;;;;;5136896;27;20035;-81
2023/03/13 03:06:55;;;;;;;13.95;4.40;;;8.40;99.90;;;;;;5138676;27;20042;-82
2023/03/13 03:09:22;;;;;;;12.75;4.10;;;8.40;99.90;;;;;;5140874;27;20074;-81
2023/03/13 03:11:47;;;;;;;17.60;4.55;;;8.40;99.90;;;;;;5158980;27;20497;-81
2023/03/13 03:14:13;;;;;;;13.40;4.30;;;8.50;99.90;;;;;;5141493;27;20131;-81
2023/03/13 03:16:39;;;;;;;10.43;3.60;;;8.50;99.90;;;;;;5140709;27;20123;-82
2023/03/13 03:19:05;;;;;;;10.35;4.05;;;8.50;99.90;;;;;;5158906;27;20482;-82
2023/03/13 03:21:31;;;;;;;8.68;3.83;;;9.30;99.90;;;;;;5123521;27;20045;-82
2023/03/13 03:23:57;;;;;;;12.57;4.05;;;9.20;99.90;;;;;;5123489;27;20134;-81
2023/03/13 03:26:23;;;;;;;13.05;3.90;;;8.60;99.90;;;;;;5158613;27;20448;-82
2023/03/13 03:28:48;;;;;;;10.80;3.20;;;8.70;99.90;;;;;;5123347;27;20046;-82
2023/03/13 03:31:15;;;;;;;11.68;3.72;;;8.90;99.90;;;;;;5123317;27;20045;-82
2023/03/13 03:33:41;;;;;;;12.88;4.00;;;9.30;99.90;;;;;;5140872;27;20133;-82
2023/03/13 03:36:10;;;;;;;12.02;4.00;;;9.30;99.90;;;;;;5140374;27;20043;-82
2023/03/13 03:38:38;;;;;;;10.52;3.90;;;8.80;99.90;;;;;;5140329;27;20050;-81
2023/03/13 03:41:04;;;;;;;9.35;3.63;;;8.80;99.90;;;;;;5158380;27;20046;-82
2023/03/13 03:43:30;;;;;;;9.13;3.88;;;9.50;99.90;;;;;;5140307;27;20078;-82
2023/03/13 03:45:56;;;;;;;11.27;3.70;;;9.90;99.90;;;;;;5158976;27;20039;-81
2023/03/13 03:48:21;;;;;;;8.18;4.30;;;8.80;99.90;;;;;;5158611;27;20039;-81
2023/03/13 03:50:47;;;;;;;10.98;4.07;;;8.80;99.90;;;;;;5158543;27;20090;-81
2023/03/13 03:53:13;;;;;;;13.35;4.22;;;8.90;99.90;;;;;;5140157;27;20393;-82
2023/03/13 03:55:38;;;;;;;7.97;3.60;;;9.00;99.90;;;;;;5140045;27;20039;-81
2023/03/13 03:58:04;;;;;;;10.57;3.78;;;8.90;99.90;;;;;;5158624;27;20085;-81
2023/03/13 04:00:29;;;;;;;12.40;3.67;;;8.90;99.90;;;;;;5139793;27;20035;-82
2023/03/13 04:02:55;;;;;;;11.38;3.85;;;8.90;99.90;;;;;;5139856;27;20046;-82
2023/03/13 04:05:21;;;;;;;10.93;4.15;;;9.50;99.90;;;;;;5158239;27;20034;-82
2023/03/13 04:07:47;;;;;;;10.52;4.18;;;9.00;99.90;;;;;;5157867;27;20462;-83
2023/03/13 04:10:13;;;;;;;8.50;4.38;;;9.60;99.90;;;;;;5122675;27;20057;-82
2023/03/13 04:12:39;;;;;;;11.68;4.38;;;9.10;99.90;;;;;;5139600;27;20512;-82
2023/03/13 04:15:05;;;;;;;10.02;4.53;;;9.10;99.90;;;;;;5122522;27;20042;-82
2023/03/13 04:17:31;;;;;;;10.83;4.00;;;9.20;99.90;;;;;;5138844;27;20398;-82
2023/03/13 04:19:56;;;;;;;9.88;4.30;;;9.20;99.90;;;;;;5139489;27;20038;-82
2023/03/13 04:22:22;;;;;;;13.13;4.45;;;9.20;99.90;;;;;;5157966;27;20043;-82
2023/03/13 04:24:47;;;;;;;8.48;4.32;;;9.30;99.90;;;;;;5157730;27;20053;-81
2023/03/13 04:27:13;;;;;;;8.32;4.35;;;9.90;99.90;;;;;;5157567;27;20198;-82
2023/03/13 04:29:39;;;;;;;7.05;3.97;;;9.50;99.90;;;;;;5157641;27;20052;-81
2023/03/13 04:32:04;;;;;;;9.68;4.47;;;9.60;99.90;;;;;;5157547;27;20386;-81
2023/03/13 04:34:30;;;;;;;7.80;4.72;;;9.40;99.90;;;;;;5122335;27;20091;-82
2023/03/13 04:36:56;;;;;;;6.15;4.05;;;9.40;99.90;;;;;;5157437;27;20470;-81
2023/03/13 04:39:24;;;;;;;9.35;5.07;;;9.40;99.90;;;;;;5157761;27;20550;-82
2023/03/13 04:41:54;;;;;;;6.63;4.65;;;9.40;99.90;;;;;;5157243;27;20039;-82
2023/03/13 04:44:20;;;;;;;9.20;4.80;;;9.80;99.90;;;;;;5157268;27;20043;-81
2023/03/13 04:46:46;;;;;;;10.38;4.75;;;9.50;99.90;;;;;;5157252;27;20049;-81
2023/03/13 04:49:13;;;;;;;11.18;4.70;;;9.50;99.90;;;;;;5138788;27;20126;-82
2023/03/13 04:51:40;;;;;;;10.30;5.20;;;9.60;99.90;;;;;;5135047;27;20126;-82
2023/03/13 04:54:05;;;;;;;9.35;4.43;;;9.60;99.90;;;;;;5136387;27;20107;-82
2023/03/13 04:56:31;;;;;;;7.38;4.47;;;10.30;99.90;;;;;;5136070;27;20051;-81
2023/03/13 04:58:57;;;;;;;7.72;5.10;;;9.60;99.90;;;;;;5136316;27;20121;-82
2023/03/13 05:01:22;;;;;;;9.30;4.85;;;9.60;99.90;;;;;;5136207;27;20043;-81
2023/03/13 05:03:48;;;;;;;10.05;5.38;;;9.70;99.90;;;;;;5136423;27;20047;-82
2023/03/13 05:06:13;;;;;;;7.93;4.40;;;9.70;99.90;;;;;;5136114;27;20043;-81
2023/03/13 05:08:39;;;;;;;6.40;4.35;;;9.70;99.90;;;;;;5136157;27;20386;-82
2023/03/13 05:11:05;;;;;;;10.95;4.93;;;9.70;99.90;;;;;;5134756;27;20127;-81
2023/03/13 05:13:31;;;;;;;9.52;5.22;;;9.80;99.90;;;;;;5135025;27;20043;-82
2023/03/13 05:15:56;;;;;;;8.23;4.75;;;9.80;99.90;;;;;;5134948;27;20039;-82
2023/03/13 05:18:22;;;;;;;6.72;4.28;;;10.00;99.90;;;;;;5135043;27;20039;-82
2023/03/13 05:20:48;;;;;;;8.30;4.30;;;9.90;99.90;;;;;;5136167;27;20039;-82
2023/03/13 05:23:13;;;;;;;12.85;4.82;;;9.90;99.90;;;;;;5134695;27;20398;-82
2023/03/13 05:25:39;;;;;;;8.88;5.15;;;9.90;99.90;;;;;;5135750;27;20039;-82
2023/03/13 05:28:05;;;;;;;8.77;5.25;;;10.00;99.90;;;;;;5117853;27;20035;-81
2023/03/13 05:30:31;;;;;;;8.93;5.22;;;9.90;99.90;;;;;;5135179;27;20474;-81
2023/03/13 05:32:56;;;;;;;8.88;5.25;;;10.00;99.90;;;;;;5135576;27;20039;-81
2023/03/13 05:35:22;;;;;;;8.77;5.78;;;10.00;99.90;;;;;;5135412;27;20364;-81
2023/03/13 05:37:48;;;;;;;8.13;5.22;;;10.00;99.90;;;;;;5117374;27;20078;-81
2023/03/13 05:40:14;;;;;;;9.93;5.65;;;10.10;99.90;;;;;;5135399;27;20554;-82
2023/03/13 05:42:39;;;;;;;10.05;5.07;;;10.10;99.90;;;;;;5135380;27;20047;-81
2023/03/13 05:45:08;;;;;;;12.48;5.65;;;10.10;99.90;;;;;;5134259;27;20054;-81
2023/03/13 05:47:34;;;;;;;7.97;5.18;;;10.10;99.90;;;;;;5134314;27;20040;-82
2023/03/13 05:50:00;;;;;;;16.05;6.07;;;10.20;99.90;;;;;;5138104;27;20051;-82
2023/03/13 05:52:25;;;;;;;11.25;5.82;;;10.20;99.90;;;;;;5137909;27;20179;-81
2023/03/13 05:54:51;;;;;;;9.00;5.90;;;10.30;99.90;;;;;;5137354;27;20477;-81
2023/03/13 05:57:16;;;;;;;11.50;6.30;;;10.40;99.90;;;;;;5155916;27;20041;-82
2023/03/13 05:59:42;;;;;;;11.75;5.95;;;10.30;99.90;;;;;;5138300;27;20091;-82
2023/03/13 06:02:08;;;;;;;11.23;5.43;;;10.20;99.90;;;;;;5155851;27;20491;-81
2023/03/13 06:04:34;;;;;;;10.27;5.75;;;10.30;99.90;;;;;;5155765;27;20042;-81
2023/03/13 06:07:00;;;;;;;10.13;6.37;;;10.40;99.90;;;;;;5155624;27;20363;-81
2023/03/13 06:09:26;;;;;;;10.73;6.60;;;11.10;99.90;;;;;;5155667;27;20673;-82
2023/03/13 06:11:52;;;;;;;13.55;5.85;;;10.50;99.90;;;;;;5155596;27;20043;-82
2023/03/13 06:14:17;;;;;;;10.93;6.32;;;10.40;99.90;;;;;;5155598;27;20091;-81
2023/03/13 06:16:44;;;;;;;11.90;6.22;;;11.00;99.90;;;;;;5155572;27;20054;-82
2023/03/13 06:19:10;;;;;;;13.07;6.20;;;10.70;99.90;;;;;;5137298;27;20050;-82
2023/03/13 06:21:36;;;;;;;10.30;6.38;;;10.60;99.90;;;;;;5137631;27;20047;-82
2023/03/13 06:24:02;;;;;;;11.50;6.93;;;10.60;99.90;;;;;;5137061;27;20179;-82
2023/03/13 06:26:27;;;;;;;12.32;7.10;;;11.10;99.90;;;;;;5119844;27;20046;-81
2023/03/13 06:28:53;;;;;;;12.88;7.38;;;11.20;99.90;;;;;;5137232;27;20038;-82
2023/03/13 06:31:19;;;;;;;17.77;7.30;;;11.30;99.90;;;;;;5137088;27;20070;-82
2023/03/13 06:33:44;;;;;;;16.45;7.93;;;10.70;99.90;;;;;;5155517;27;20129;-82
2023/03/13 06:36:10;;;;;;;13.15;7.30;;;10.80;99.90;;;;;;5136807;27;20046;-82
2023/03/13 06:38:36;;;;;;;14.40;7.65;;;10.80;99.90;;;;;;5137079;27;20082;-82
2023/03/13 06:41:01;;;;;;;13.10;7.30;;;11.10;99.90;;;;;;5137567;27;20133;-82
2023/03/13 06:43:27;;;;;;;15.05;7.70;;;10.80;99.90;;;;;;5141994;27;20046;-82
2023/03/13 06:45:53;;;;;;;13.70;7.88;;;10.90;99.90;;;;;;5141075;27;20057;-82
2023/03/13 06:48:21;;;;;;;15.57;7.20;;;10.90;99.90;;;;;;5159755;27;20035;-81
2023/03/13 06:50:48;;;;;;;17.75;6.78;;;10.90;99.90;;;;;;5123480;27;20054;-82
2023/03/13 06:53:23;;;;;;;13.85;7.32;;;11.00;99.90;;;;;;5158190;27;20057;-82
2023/03/13 06:55:48;;;;;;;14.45;6.57;;;10.90;99.90;;;;;;5159001;27;20046;-81
2023/03/13 06:58:15;;;;;;;12.50;6.25;;;11.10;99.90;;;;;;5157976;27;20123;-81
2023/03/13 07:00:42;;;;;;;10.13;5.40;;;11.00;99.90;;;;;;5158288;27;20070;-81
2023/03/13 07:03:09;;;;;;;12.23;5.80;;;11.10;99.90;;;;;;5158073;27;20427;-81
2023/03/13 07:05:35;;;;;;;13.63;5.75;;;11.10;99.90;;;;;;5157784;27;20473;-81
2023/03/13 07:08:01;;;;;;;14.33;6.07;;;11.10;99.90;;;;;;5139235;27;20455;-81
2023/03/13 07:10:28;;;;;;;13.43;5.50;;;11.20;99.90;;;;;;5139750;27;20272;-81
2023/03/13 07:12:53;;;;;;;13.52;5.97;;;11.20;99.90;;;;;;5139402;27;20042;-81
2023/03/13 07:15:19;;;;;;;11.10;5.70;;;11.20;99.90;;;;;;5139902;27;20049;-81
2023/03/13 07:17:45;;;;;;;9.15;4.72;;;11.20;99.90;;;;;;5157570;27;20413;-81
2023/03/13 07:20:11;;;;;;;12.02;4.60;;;11.50;99.90;;;;;;5157460;27;20479;-81
2023/03/13 07:22:37;;;;;;;10.18;4.88;;;11.30;99.90;;;;;;5139145;27;20095;-81
2023/03/13 07:25:03;;;;;;;9.15;4.00;;;11.30;99.90;;;;;;5139481;27;20051;-81
2023/03/13 07:27:29;;;;;;;10.63;4.47;;;11.40;99.90;;;;;;5138639;27;20074;-81
2023/03/13 07:29:55;;;;;;;8.10;3.97;;;11.40;99.90;;;;;;5139205;27;20371;-81
2023/03/13 07:32:21;;;;;;;13.90;4.35;;;11.40;99.90;;;;;;5157449;27;20038;-81
2023/03/13 07:34:47;;;;;;;10.30;3.90;;;11.40;99.90;;;;;;5157127;27;20057;-81
2023/03/13 07:37:14;;;;;;;8.63;4.18;;;12.20;99.90;;;;;;5157303;27;20122;-81
2023/03/13 07:39:40;;;;;;;;;;;11.50;99.90;;;;;;5157773;27;20098;-80
2023/03/13 07:42:05;;;;;;;10.15;4.75;;;11.50;99.90;;;;;;5157225;27;19919;-81
2023/03/13 07:44:31;;;;;;;9.25;3.72;;;11.50;99.90;;;;;;5139449;27;20121;-81
2023/03/13 07:47:00;;;;;;;12.35;4.20;;;11.50;99.90;;;;;;5157111;27;20084;-81
2023/03/13 07:49:26;;;;;;;11.43;4.15;;;11.50;99.90;;;;;;5157149;27;20043;-81
2023/03/13 07:51:51;;;;;;;9.00;4.13;;;11.60;99.90;;;;;;5101108;27;1069231;-81
2023/03/13 07:54:17;;;;;;;8.40;4.00;;;11.70;99.90;;;;;;5158676;27;20107;-81
2023/03/13 07:56:43;;;;;;;9.55;3.70;;;11.60;99.90;;;;;;5140610;27;20035;-81
2023/03/13 07:59:09;;;;;;;10.15;3.75;;;11.60;99.90;;;;;;5158242;27;20034;-81
2023/03/13 08:01:34;;;;;;;12.27;4.00;;;12.00;99.90;;;;;;5158327;27;20050;-81
2023/03/13 08:04:00;;;;;;;11.95;4.20;;;11.70;99.90;;;;;;5158274;27;20043;-81
2023/03/13 08:06:28;;;;;;;8.77;3.83;;;11.70;99.90;;;;;;5139783;27;20045;-81
2023/03/13 08:08:57;;;;;;;7.75;3.85;;;11.70;99.90;;;;;;5157897;27;20042;-81
2023/03/13 08:11:25;;;;;;;8.02;4.32;;;11.70;99.90;;;;;;5157883;27;20086;-81
2023/03/13 08:13:52;;;;;;;9.07;4.88;;;11.70;99.90;;;;;;5139563;27;20046;-81
2023/03/13 08:16:24;;;;;;;11.98;4.50;;;11.80;99.90;;;;;;5157936;27;20054;-80
2023/03/13 08:18:52;;;;;;;8.35;3.72;;;11.80;99.90;;;;;;5157751;27;20039;-80
2023/03/13 08:21:26;;;;;;;10.25;4.40;;;11.80;99.90;;;;;;5157365;27;20566;-81
2023/03/13 08:23:54;;;;;;;9.13;4.53;;;11.70;99.90;;;;;;5157640;27;20042;-81
2023/03/13 08:26:21;;;;;;;7.82;3.97;;;11.70;99.90;;;;;;5157606;27;20078;-81
2023/03/13 08:28:50;;;;;;;8.18;4.47;;;11.80;99.90;;;;;;5157478;27;20039;-81
2023/03/13 08:31:19;;;;;;;9.93;4.05;;;11.70;99.90;;;;;;5139338;27;20050;-81
2023/03/13 08:33:45;;;;;;;10.05;4.28;;;11.60;99.90;;;;;;5139129;27;20053;-81
2023/03/13 08:36:16;;;;;;;6.60;3.90;;;12.30;99.90;;;;;;5157433;27;20082;-81
2023/03/13 08:38:43;;;;;;;6.40;3.95;;;11.60;99.90;;;;;;5138899;27;20031;-81
2023/03/13 08:41:09;;;;;;;8.80;4.30;;;11.90;99.90;;;;;;5157586;27;20085;-81
2023/03/13 08:43:35;;;;;;;6.85;3.75;;;11.70;99.90;;;;;;5157551;27;20039;-81
2023/03/13 08:46:00;;;;;;;10.10;3.58;;;11.70;99.90;;;;;;5157370;27;20489;-81
2023/03/13 08:48:26;;;;;;;16.30;3.65;;;11.80;99.90;;;;;;5157094;27;20522;-81
2023/03/13 08:51:12;;;;;;;6.50;3.20;;;11.80;99.90;;;;;;5138372;27;20042;-82
2023/03/13 08:53:40;;;;;;;4.18;2.97;;;11.80;99.90;;;;;;5157677;27;20034;-81
2023/03/13 08:56:07;;;;;;;7.40;3.17;;;11.90;99.90;;;;;;5157029;27;20039;-80
2023/03/13 08:58:33;;;;;;;9.13;2.95;;;11.90;99.90;;;;;;5138420;27;20489;-80
2023/03/13 09:01:03;;;;;;;4.38;2.80;;;12.00;99.90;;;;;;5138642;27;20042;-80
2023/03/13 09:03:29;;;;;;;6.68;2.78;;;12.00;99.90;;;;;;5156491;27;20042;-80
2023/03/13 09:05:59;;;;;;;3.13;2.23;;;12.10;99.90;;;;;;5156503;27;20043;-81
2023/03/13 09:08:25;;;;;;;6.35;2.33;;;12.20;99.90;;;;;;5156674;27;20043;-81
2023/03/13 09:10:56;;;;;;;5.27;2.33;;;12.40;99.90;;;;;;5138217;27;20126;-81
2023/03/13 09:13:22;;;;;;;4.45;2.50;;;12.80;99.90;;;;;;5156673;27;20054;-81
2023/03/13 09:15:55;;;;;;;5.00;2.22;;;12.90;99.90;;;;;;5138618;27;20054;-81
2023/03/13 09:18:21;;;;;;;3.63;2.22;;;13.60;99.90;;;;;;5156629;27;20138;-81
2023/03/13 09:20:46;;;;;;;3.20;1.70;;;13.20;99.90;;;;;;5138759;27;20541;-81
2023/03/13 09:23:12;;;;;;;5.90;1.80;;;13.30;99.90;;;;;;5156548;27;20470;-80
2023/03/13 09:25:38;;;;;;;10.73;2.25;;;13.30;99.90;;;;;;5156709;27;20089;-80
2023/03/13 09:28:04;;;;;;;4.05;1.90;;;13.30;99.90;;;;;;5156345;27;20472;-81
2023/03/13 09:30:29;;;;;;;4.03;1.73;;;13.30;99.90;;;;;;5156416;27;20042;-81
2023/03/13 09:32:55;;;;;;;4.63;2.00;;;13.50;99.90;;;;;;5156051;27;20390;-81
2023/03/13 09:35:21;;;;;;;4.10;1.90;;;13.40;99.90;;;;;;5138495;27;20050;-81
2023/03/13 09:37:46;;;;;;;5.25;1.92;;;13.20;99.90;;;;;;5156462;27;20497;-81
2023/03/13 09:40:18;;;;;;;4.13;2.17;;;13.50;99.90;;;;;;5156219;27;20048;-81
2023/03/13 09:42:49;;;;;;;6.20;1.95;;;13.10;99.90;;;;;;5155771;27;20589;-82
2023/03/13 09:45:39;;;;;;;7.10;2.15;;;13.10;99.90;;;;;;5155766;27;20050;-81
2023/03/13 09:48:17;;;;;;;2.67;1.65;;;13.10;99.90;;;;;;5156001;27;20045;-82
2023/03/13 09:51:10;;;;;;;7.68;1.92;;;13.00;99.90;;;;;;5120451;27;20375;-81
2023/03/13 09:53:58;;;;;;;4.95;1.80;;;13.00;99.90;;;;;;5156611;27;20046;-81
2023/03/13 09:56:29;;;;;;;5.13;2.10;;;13.10;99.90;;;;;;5155987;27;20122;-80
2023/03/13 09:59:05;;;;;;;4.72;1.80;;;13.00;99.90;;;;;;5155865;27;20050;-81
2023/03/13 10:01:33;;;;;;;3.67;1.67;;;13.00;99.90;;;;;;5155836;27;20046;-81
2023/03/13 10:04:18;;;;;;;4.45;1.65;;;13.00;99.90;;;;;;5156216;27;20050;-80
2023/03/13 10:06:44;;;;;;;3.42;1.90;;;13.30;99.90;;;;;;5155632;27;20049;-81
2023/03/13 10:09:40;;;;;;;4.20;1.70;;;13.00;99.90;;;;;;5137832;27;20079;-81
2023/03/13 10:12:10;;;;;;;3.17;1.67;;;13.10;99.90;;;;;;5133639;27;20046;-80
2023/03/13 10:14:43;;;;;;;2.97;1.65;;;13.10;99.90;;;;;;5156014;27;20370;-80
2023/03/13 10:17:19;;;;;;;5.45;1.98;;;13.20;99.90;;;;;;5155681;27;20054;-80
2023/03/13 10:19:52;;;;;;;4.40;1.92;;;13.30;99.90;;;;;;5137108;27;20039;-81
2023/03/13 10:22:23;;;;;;;4.05;1.77;;;13.30;99.90;;;;;;5155576;27;20047;-80
2023/03/13 10:24:59;;;;;;;5.18;2.10;;;13.30;99.90;;;;;;5155538;27;20094;-81
2023/03/13 10:27:25;;;;;;;8.35;2.00;;;13.30;99.90;;;;;;5155553;27;20394;-81
2023/03/13 10:29:50;;;;;;;3.67;2.00;;;13.30;99.90;;;;;;5155510;27;20043;-80
2023/03/13 10:32:17;;;;;;;9.80;1.95;;;13.50;99.90;;;;;;5155657;27;20389;-80
2023/03/13 10:34:54;;;;;;;6.60;2.47;;;13.80;99.90;;;;;;5155401;27;20047;-81
2023/03/13 10:37:23;;;;;;;8.07;1.70;;;13.80;99.90;;;;;;5155539;27;20046;-81
2023/03/13 10:39:49;;;;;;;5.72;1.55;;;14.50;99.90;;;;;;5155291;27;20045;-81
2023/03/13 10:42:33;;;;;;;8.50;2.10;;;14.40;99.90;;;;;;5155340;27;20034;-80
2023/03/13 10:45:02;;;;;;;3.72;1.77;;;13.90;99.90;;;;;;5137241;27;20042;-81
2023/03/13 10:47:33;;;;;;;9.13;1.90;;;13.90;99.90;;;;;;5136666;27;20434;-81
2023/03/13 10:50:00;;;;;;;5.85;2.72;;;14.00;99.90;;;;;;5155625;27;20428;-81
2023/03/13 10:52:46;;;;;;;5.50;1.75;;;14.20;99.90;;;;;;5155658;27;20153;-81
2023/03/13 10:55:17;;;;;;;6.60;1.77;;;14.10;99.90;;;;;;5155457;27;20053;-81
2023/03/13 10:57:56;;;;;;;8.27;2.30;;;14.10;99.90;;;;;;5136682;27;20055;-81
2023/03/13 11:00:39;;;;;;;3.85;1.73;;;14.10;99.90;;;;;;5137535;27;20047;-81
2023/03/13 11:03:30;;;;;;;7.50;2.25;;;14.10;99.90;;;;;;5155063;27;20042;-81
2023/03/13 11:06:01;;;;;;;8.30;1.83;;;14.10;99.90;;;;;;5137086;27;20046;-81
2023/03/13 11:08:33;;;;;;;6.20;1.92;;;14.20;99.90;;;;;;5136494;27;20050;-81
2023/03/13 11:11:04;;;;;;;3.72;1.80;;;14.30;99.90;;;;;;5136621;27;20043;-81
2023/03/13 11:13:34;;;;;;;4.45;1.80;;;14.30;99.90;;;;;;5136652;27;20034;-81
2023/03/13 11:16:08;;;;;;;5.90;1.60;;;14.60;99.90;;;;;;5155090;27;20087;-81
2023/03/13 11:18:53;;;;;;;9.27;1.90;;;14.50;99.90;;;;;;5136678;27;20078;-82
2023/03/13 11:22:04;;;;;;;3.92;1.75;;;14.60;99.90;;;;;;5136823;27;20047;-81
2023/03/13 11:24:33;;;;;;;3.65;1.55;;;14.70;99.90;;;;;;5107231;27;20054;-81
2023/03/13 11:27:36;;;;;;;4.30;1.50;;;14.80;99.90;;;;;;5137283;27;20047;-82
2023/03/13 11:30:02;;;;;;;5.18;1.27;;;14.90;99.90;;;;;;5158895;27;20055;-81
2023/03/13 11:32:46;;;;;;;4.23;1.50;;;15.10;99.90;;;;;;5159026;27;20046;-81
2023/03/13 11:35:22;;;;;;;3.03;1.40;;;15.40;99.90;;;;;;5159044;27;20047;-82
2023/03/13 11:37:53;;;;;;;5.97;1.40;;;15.60;99.90;;;;;;5158893;27;20147;-81
2023/03/13 11:40:30;;;;;;;3.95;1.42;;;15.80;99.90;;;;;;5159402;27;20050;-81
2023/03/13 11:43:18;;;;;;;4.18;1.63;;;16.10;99.90;;;;;;5159023;27;20080;-81
2023/03/13 11:45:52;;;;;;;6.28;1.40;;;16.30;99.90;;;;;;5140169;27;20462;-81
2023/03/13 11:48:29;;;;;;;4.82;1.38;;;16.50;99.90;;;;;;5139788;27;20545;-81
2023/03/13 11:51:19;;;;;;;4.80;1.17;;;16.40;99.90;;;;;;5158793;27;20439;-81
2023/03/13 11:54:24;;;;;;;3.50;1.27;;;16.40;99.90;;;;;;5158313;27;20085;-81
2023/03/13 11:56:55;;;;;;;4.30;1.40;;;16.30;99.90;;;;;;5158788;27;20053;-80
2023/03/13 11:59:53;;;;;;;2.97;1.38;;;16.50;99.90;;;;;;5158191;27;20039;-81
2023/03/13 12:02:25;;;;;;;;;;;16.40;99.90;;;;;;5118498;27;20107;-81
2023/03/13 12:04:56;;;;;;;4.28;1.40;;;16.30;99.90;;;;;;5122583;27;19926;-81
2023/03/13 12:07:44;;;;;;;3.78;1.52;;;16.30;99.90;;;;;;5140020;27;20045;-81
2023/03/13 12:10:20;;;;;;;3.35;1.33;;;16.10;99.90;;;;;;5125601;27;20440;-81
2023/03/13 12:13:01;;;;;;;4.25;1.73;;;16.60;99.90;;;;;;5157967;27;20087;-81
2023/03/13 12:15:43;;;;;;;5.35;1.38;;;16.10;99.90;;;;;;5157889;27;20380;-80
2023/03/13 12:18:32;;;;;;;7.20;1.60;;;16.10;99.90;;;;;;5158265;27;20443;-80
2023/03/13 12:21:00;;;;;;;16.25;1.63;;;16.20;99.90;;;;;;5158164;27;20091;-81
2023/03/13 12:23:38;;;;;;;3.08;1.23;;;16.30;99.90;;;;;;5139227;27;20046;-82
2023/03/13 12:26:12;;;;;;;4.25;1.33;;;17.70;99.90;;;;;;5157654;27;20133;-81
2023/03/13 12:28:42;;;;;;;2.83;1.30;;;16.10;99.90;;;;;;5157422;27;20042;-81
2023/03/13 12:31:39;;;;;;;7.60;1.42;;;16.20;99.90;;;;;;5157526;27;20082;-81
2023/03/13 12:34:21;;;;;;;5.35;1.50;;;16.20;99.90;;;;;;5157413;27;20125;-81
2023/03/13 12:37:10;;;;;;;3.83;1.20;;;16.30;99.90;;;;;;5157535;27;20051;-82
2023/03/13 12:39:46;;;;;;;3.78;1.60;;;16.30;99.90;;;;;;5138359;27;20062;-81
2023/03/13 12:42:33;;;;;;;4.00;1.70;;;16.30;99.90;;;;;;5157580;27;20045;-82
2023/03/13 12:44:59;;;;;;;4.60;1.52;;;16.20;99.90;;;;;;5157582;27;20046;-81
2023/03/13 12:47:49;;;;;;;4.63;1.42;;;16.20;99.90;;;;;;5158111;27;20043;-81
2023/03/13 12:50:34;;;;;;;4.45;1.25;;;16.40;99.90;;;;;;5158146;27;20468;-81
2023/03/13 12:53:15;;;;;;;3.53;2.05;;;16.50;99.90;;;;;;5158033;27;20383;-80
2023/03/13 12:56:00;;;;;;;3.55;1.50;;;16.60;99.90;;;;;;5158719;27;20057;-81
2023/03/13 12:58:43;;;;;;;5.63;1.83;;;16.60;99.90;;;;;;5159055;27;20047;-81